sensor_id;sensor_type;location;lat;lon;timestamp;temperature;humidity
22956;DHT22;40888;48.148;11.526;2024-03-02T00:02:46;6.50;99.90
22956;DHT22;40888;48.148;11.526;2024-03-02T00:05:13;6.50;99.90
22956;DHT22;40888;48.148;11.526;2024-03-02T00:07:44;6.50;99.90
22956;DHT22;40888;48.148;11.526;2024-03-02T00:10:14;6.60;99.90
22956;DHT22;40888;48.148;11.526;2024-03-02T00:12:42;6.60;99.90
22956;DHT22;40888;48.148;11.526;2024-03-02T00:15:46;6.60;99.90
22956;DHT22;40888;48.148;11.526;2024-03-02T00:18:34;6.70;99.90
22956;DHT22;40888;48.148;11.526;2024-03-02T00:21:00;6.70;99.90
22956;DHT22;40888;48.148;11.526;2024-03-02T00:23:33;6.60;99.90
22956;DHT22;40888;48.148;11.526;2024-03-02T00:25:59;6.60;99.90
22956;DHT22;40888;48.148;11.526;2024-03-02T00:28:33;6.70;99.90
22956;DHT22;40888;48.148;11.526;2024-03-02T00:33:31;6.60;99.90
22956;DHT22;40888;48.148;11.526;2024-03-02T00:35:57;6.70;99.90
22956;DHT22;40888;48.148;11.526;2024-03-02T00:38:23;6.70;99.90
22956;DHT22;40888;48.148;11.526;2024-03-02T00:40:49;6.60;99.90
22956;DHT22;40888;48.148;11.526;2024-03-02T00:45:49;6.60;99.90
22956;DHT22;40888;48.148;11.526;2024-03-02T00:48:16;6.60;99.90
22956;DHT22;40888;48.148;11.526;2024-03-02T00:50:42;6.60;99.90
22956;DHT22;40888;48.148;11.526;2024-03-02T00:53:11;6.60;99.90
22956;DHT22;40888;48.148;11.526;2024-03-02T00:55:37;6.50;99.90
22956;DHT22;40888;48.148;11.526;2024-03-02T00:58:03;6.50;99.90
22956;DHT22;40888;48.148;11.526;2024-03-02T01:00:29;6.50;99.90
22956;DHT22;40888;48.148;11.526;2024-03-02T01:02:55;6.50;99.90
22956;DHT22;40888;48.148;11.526;2024-03-02T01:05:20;6.50;99.90
22956;DHT22;40888;48.148;11.526;2024-03-02T01:07:46;6.50;99.90
22956;DHT22;40888;48.148;11.526;2024-03-02T01:10:12;6.40;99.90
22956;DHT22;40888;48.148;11.526;2024-03-02T01:12:38;6.30;99.90
22956;DHT22;40888;48.148;11.526;2024-03-02T01:15:04;6.20;99.90
22956;DHT22;40888;48.148;11.526;2024-03-02T01:17:33;6.20;99.90
22956;DHT22;40888;48.148;11.526;2024-03-02T01:19:59;6.20;99.90
22956;DHT22;40888;48.148;11.526;2024-03-02T01:22:24;6.20;99.90
22956;DHT22;40888;48.148;11.526;2024-03-02T01:24:51;6.10;99.90
22956;DHT22;40888;48.148;11.526;2024-03-02T01:27:17;6.20;99.90
22956;DHT22;40888;48.148;11.526;2024-03-02T01:29:42;6.20;99.90
22956;DHT22;40888;48.148;11.526;2024-03-02T01:32:08;6.20;99.90
22956;DHT22;40888;48.148;11.526;2024-03-02T01:34:33;6.20;99.90
22956;DHT22;40888;48.148;11.526;2024-03-02T01:36:59;6.30;99.90
22956;DHT22;40888;48.148;11.526;2024-03-02T01:39:25;6.20;99.90
22956;DHT22;40888;48.148;11.526;2024-03-02T01:41:50;6.20;99.90
22956;DHT22;40888;48.148;11.526;2024-03-02T01:44:16;6.20;99.90
22956;DHT22;40888;48.148;11.526;2024-03-02T01:46:42;6.20;99.90
22956;DHT22;40888;48.148;11.526;2024-03-02T01:49:08;6.20;99.90
22956;DHT22;40888;48.148;11.526;2024-03-02T01:51:34;6.30;99.90
22956;DHT22;40888;48.148;11.526;2024-03-02T01:54:00;6.40;99.90
22956;DHT22;40888;48.148;11.526;2024-03-02T01:56:25;6.40;99.90
22956;DHT22;40888;48.148;11.526;2024-03-02T01:58:51;6.30;99.90
22956;DHT22;40888;48.148;11.526;2024-03-02T02:01:17;6.30;99.90
22956;DHT22;40888;48.148;11.526;2024-03-02T02:03:44;6.30;99.90
22956;DHT22;40888;48.148;11.526;2024-03-02T02:06:09;6.40;99.90
22956;DHT22;40888;48.148;11.526;2024-03-02T02:08:37;6.40;99.90
22956;DHT22;40888;48.148;11.526;2024-03-02T02:11:03;6.40;99.90
22956;DHT22;40888;48.148;11.526;2024-03-02T02:13:29;6.40;99.90
22956;DHT22;40888;48.148;11.526;2024-03-02T02:15:54;6.40;99.90
22956;DHT22;40888;48.148;11.526;2024-03-02T02:18:20;6.40;99.90
22956;DHT22;40888;48.148;11.526;2024-03-02T02:20:46;6.40;99.90
22956;DHT22;40888;48.148;11.526;2024-03-02T02:23:11;6.40;99.90
22956;DHT22;40888;48.148;11.526;2024-03-02T02:25:38;6.40;99.90
22956;DHT22;40888;48.148;11.526;2024-03-02T02:28:05;6.50;99.90
22956;DHT22;40888;48.148;11.526;2024-03-02T02:30:31;6.50;99.90
22956;DHT22;40888;48.148;11.526;2024-03-02T02:32:58;6.50;99.90
22956;DHT22;40888;48.148;11.526;2024-03-02T02:35:23;6.50;99.90
22956;DHT22;40888;48.148;11.526;2024-03-02T02:37:50;6.50;99.90
22956;DHT22;40888;48.148;11.526;2024-03-02T02:40:17;6.40;99.90
22956;DHT22;40888;48.148;11.526;2024-03-02T02:42:46;6.50;99.90
22956;DHT22;40888;48.148;11.526;2024-03-02T02:45:11;6.40;99.90
22956;DHT22;40888;48.148;11.526;2024-03-02T02:47:40;6.40;99.90
22956;DHT22;40888;48.148;11.526;2024-03-02T02:50:10;6.40;99.90
22956;DHT22;40888;48.148;11.526;2024-03-02T02:52:38;6.40;99.90
22956;DHT22;40888;48.148;11.526;2024-03-02T02:55:06;6.50;99.90
22956;DHT22;40888;48.148;11.526;2024-03-02T02:57:33;6.50;99.90
22956;DHT22;40888;48.148;11.526;2024-03-02T03:00:05;6.60;99.90
22956;DHT22;40888;48.148;11.526;2024-03-02T03:02:36;6.60;99.90
22956;DHT22;40888;48.148;11.526;2024-03-02T03:05:02;6.60;99.90
22956;DHT22;40888;48.148;11.526;2024-03-02T03:07:27;6.60;99.90
22956;DHT22;40888;48.148;11.526;2024-03-02T03:09:53;6.50;99.90
22956;DHT22;40888;48.148;11.526;2024-03-02T03:12:19;6.60;99.90
22956;DHT22;40888;48.148;11.526;2024-03-02T03:14:45;6.60;99.90
22956;DHT22;40888;48.148;11.526;2024-03-02T03:17:11;6.50;99.90
22956;DHT22;40888;48.148;11.526;2024-03-02T03:19:38;6.60;99.90
22956;DHT22;40888;48.148;11.526;2024-03-02T03:22:04;6.50;99.90
22956;DHT22;40888;48.148;11.526;2024-03-02T03:24:29;6.50;99.90
22956;DHT22;40888;48.148;11.526;2024-03-02T03:26:55;6.50;99.90
22956;DHT22;40888;48.148;11.526;2024-03-02T03:29:21;6.40;99.90
22956;DHT22;40888;48.148;11.526;2024-03-02T03:31:46;6.40;99.90
22956;DHT22;40888;48.148;11.526;2024-03-02T03:34:12;6.40;99.90
22956;DHT22;40888;48.148;11.526;2024-03-02T03:36:41;6.50;99.90
22956;DHT22;40888;48.148;11.526;2024-03-02T03:39:07;6.50;99.90
22956;DHT22;40888;48.148;11.526;2024-03-02T03:41:33;6.70;99.90
22956;DHT22;40888;48.148;11.526;2024-03-02T03:43:58;6.70;99.90
22956;DHT22;40888;48.148;11.526;2024-03-02T03:46:24;6.70;99.90
22956;DHT22;40888;48.148;11.526;2024-03-02T03:48:50;6.60;99.90
22956;DHT22;40888;48.148;11.526;2024-03-02T03:51:16;6.60;99.90
22956;DHT22;40888;48.148;11.526;2024-03-02T03:53:41;6.60;99.90
22956;DHT22;40888;48.148;11.526;2024-03-02T03:56:07;6.60;99.90
22956;DHT22;40888;48.148;11.526;2024-03-02T03:58:33;6.60;99.90
22956;DHT22;40888;48.148;11.526;2024-03-02T04:00:58;6.60;99.90
22956;DHT22;40888;48.148;11.526;2024-03-02T04:03:24;6.60;99.90
22956;DHT22;40888;48.148;11.526;2024-03-02T04:05:50;6.60;99.90
22956;DHT22;40888;48.148;11.526;2024-03-02T04:08:16;6.50;99.90
22956;DHT22;40888;48.148;11.526;2024-03-02T04:10:42;6.50;99.90
22956;DHT22;40888;48.148;11.526;2024-03-02T04:13:08;6.50;99.90
22956;DHT22;40888;48.148;11.526;2024-03-02T04:15:33;6.40;99.90
22956;DHT22;40888;48.148;11.526;2024-03-02T04:17:59;6.50;99.90
22956;DHT22;40888;48.148;11.526;2024-03-02T04:20:25;6.50;99.90
22956;DHT22;40888;48.148;11.526;2024-03-02T04:22:51;6.50;99.90
22956;DHT22;40888;48.148;11.526;2024-03-02T04:25:16;6.50;99.90
22956;DHT22;40888;48.148;11.526;2024-03-02T04:27:42;6.50;99.90
22956;DHT22;40888;48.148;11.526;2024-03-02T04:30:08;6.40;99.90
22956;DHT22;40888;48.148;11.526;2024-03-02T04:32:33;6.40;99.90
22956;DHT22;40888;48.148;11.526;2024-03-02T04:34:59;6.50;99.90
22956;DHT22;40888;48.148;11.526;2024-03-02T04:37:25;6.50;99.90
22956;DHT22;40888;48.148;11.526;2024-03-02T04:39:50;6.60;99.90
22956;DHT22;40888;48.148;11.526;2024-03-02T04:42:16;6.50;99.90
22956;DHT22;40888;48.148;11.526;2024-03-02T04:44:42;6.50;99.90
22956;DHT22;40888;48.148;11.526;2024-03-02T04:47:08;6.50;99.90
22956;DHT22;40888;48.148;11.526;2024-03-02T04:49:33;6.40;99.90
22956;DHT22;40888;48.148;11.526;2024-03-02T04:51:59;6.40;99.90
22956;DHT22;40888;48.148;11.526;2024-03-02T04:54:25;6.40;99.90
22956;DHT22;40888;48.148;11.526;2024-03-02T04:56:50;6.40;99.90
22956;DHT22;40888;48.148;11.526;2024-03-02T04:59:17;6.30;99.90
22956;DHT22;40888;48.148;11.526;2024-03-02T05:01:46;6.30;99.90
22956;DHT22;40888;48.148;11.526;2024-03-02T05:04:12;6.30;99.90
22956;DHT22;40888;48.148;11.526;2024-03-02T05:06:39;6.30;99.90
22956;DHT22;40888;48.148;11.526;2024-03-02T05:09:06;6.30;99.90
22956;DHT22;40888;48.148;11.526;2024-03-02T05:11:31;6.30;99.90
22956;DHT22;40888;48.148;11.526;2024-03-02T05:14:03;6.30;99.90
22956;DHT22;40888;48.148;11.526;2024-03-02T05:16:29;6.20;99.90
22956;DHT22;40888;48.148;11.526;2024-03-02T05:18:54;6.20;99.90
22956;DHT22;40888;48.148;11.526;2024-03-02T05:21:20;6.20;99.90
22956;DHT22;40888;48.148;11.526;2024-03-02T05:23:46;6.20;99.90
22956;DHT22;40888;48.148;11.526;2024-03-02T05:26:12;6.30;99.90
22956;DHT22;40888;48.148;11.526;2024-03-02T05:28:40;6.40;99.90
22956;DHT22;40888;48.148;11.526;2024-03-02T05:31:06;6.40;99.90
22956;DHT22;40888;48.148;11.526;2024-03-02T05:33:32;6.40;99.90
22956;DHT22;40888;48.148;11.526;2024-03-02T05:35:58;6.40;99.90
22956;DHT22;40888;48.148;11.526;2024-03-02T05:38:24;6.40;99.90
22956;DHT22;40888;48.148;11.526;2024-03-02T05:40:50;6.40;99.90
22956;DHT22;40888;48.148;11.526;2024-03-02T05:43:15;6.40;99.90
22956;DHT22;40888;48.148;11.526;2024-03-02T05:45:41;6.30;99.90
22956;DHT22;40888;48.148;11.526;2024-03-02T05:48:07;6.30;99.90
22956;DHT22;40888;48.148;11.526;2024-03-02T05:50:33;6.30;99.90
22956;DHT22;40888;48.148;11.526;2024-03-02T05:52:59;6.30;99.90
22956;DHT22;40888;48.148;11.526;2024-03-02T05:55:25;6.30;99.90
22956;DHT22;40888;48.148;11.526;2024-03-02T05:57:50;6.30;99.90
22956;DHT22;40888;48.148;11.526;2024-03-02T06:00:31;6.30;99.90
22956;DHT22;40888;48.148;11.526;2024-03-02T06:02:57;6.30;99.90
22956;DHT22;40888;48.148;11.526;2024-03-02T06:05:22;6.30;99.90
22956;DHT22;40888;48.148;11.526;2024-03-02T06:07:48;6.20;99.90
22956;DHT22;40888;48.148;11.526;2024-03-02T06:10:14;6.20;99.90
22956;DHT22;40888;48.148;11.526;2024-03-02T06:12:40;6.20;99.90
22956;DHT22;40888;48.148;11.526;2024-03-02T06:15:06;6.20;99.90
22956;DHT22;40888;48.148;11.526;2024-03-02T06:17:32;6.20;99.90
22956;DHT22;40888;48.148;11.526;2024-03-02T06:19:58;6.30;99.90
22956;DHT22;40888;48.148;11.526;2024-03-02T06:22:23;6.30;99.90
22956;DHT22;40888;48.148;11.526;2024-03-02T06:24:50;6.30;99.90
22956;DHT22;40888;48.148;11.526;2024-03-02T06:27:16;6.40;99.90
22956;DHT22;40888;48.148;11.526;2024-03-02T06:29:42;6.30;99.90
22956;DHT22;40888;48.148;11.526;2024-03-02T06:32:08;6.30;99.90
22956;DHT22;40888;48.148;11.526;2024-03-02T06:34:36;6.30;99.90
22956;DHT22;40888;48.148;11.526;2024-03-02T06:37:01;6.40;99.90
22956;DHT22;40888;48.148;11.526;2024-03-02T06:39:27;6.40;99.90
22956;DHT22;40888;48.148;11.526;2024-03-02T06:41:53;6.40;99.90
22956;DHT22;40888;48.148;11.526;2024-03-02T06:44:18;6.40;99.90
22956;DHT22;40888;48.148;11.526;2024-03-02T06:46:44;6.40;99.90
22956;DHT22;40888;48.148;11.526;2024-03-02T06:49:10;6.40;99.90
22956;DHT22;40888;48.148;11.526;2024-03-02T06:51:38;6.40;99.90
22956;DHT22;40888;48.148;11.526;2024-03-02T06:54:04;6.40;99.90
22956;DHT22;40888;48.148;11.526;2024-03-02T06:56:30;6.50;99.90
22956;DHT22;40888;48.148;11.526;2024-03-02T06:58:56;6.50;99.90
22956;DHT22;40888;48.148;11.526;2024-03-02T07:01:21;6.50;99.90
22956;DHT22;40888;48.148;11.526;2024-03-02T07:03:47;6.60;99.90
22956;DHT22;40888;48.148;11.526;2024-03-02T07:06:13;6.60;99.90
22956;DHT22;40888;48.148;11.526;2024-03-02T07:08:38;6.70;99.90
22956;DHT22;40888;48.148;11.526;2024-03-02T07:11:04;6.70;99.90
22956;DHT22;40888;48.148;11.526;2024-03-02T07:13:30;6.80;99.90
22956;DHT22;40888;48.148;11.526;2024-03-02T07:15:55;6.80;99.90
22956;DHT22;40888;48.148;11.526;2024-03-02T07:18:36;6.80;99.90
22956;DHT22;40888;48.148;11.526;2024-03-02T07:21:10;6.90;99.90
22956;DHT22;40888;48.148;11.526;2024-03-02T07:23:36;6.90;99.90
22956;DHT22;40888;48.148;11.526;2024-03-02T07:26:01;7.00;99.90
22956;DHT22;40888;48.148;11.526;2024-03-02T07:28:28;7.00;99.90
22956;DHT22;40888;48.148;11.526;2024-03-02T07:31:01;7.00;99.90
22956;DHT22;40888;48.148;11.526;2024-03-02T07:33:27;7.00;99.90
22956;DHT22;40888;48.148;11.526;2024-03-02T07:35:56;7.10;99.90
22956;DHT22;40888;48.148;11.526;2024-03-02T07:38:23;7.10;99.90
22956;DHT22;40888;48.148;11.526;2024-03-02T07:40:49;7.20;99.90
22956;DHT22;40888;48.148;11.526;2024-03-02T07:43:21;7.20;99.90
22956;DHT22;40888;48.148;11.526;2024-03-02T07:45:50;7.50;99.90
22956;DHT22;40888;48.148;11.526;2024-03-02T07:48:15;7.70;99.90
22956;DHT22;40888;48.148;11.526;2024-03-02T07:50:41;8.00;99.90
22956;DHT22;40888;48.148;11.526;2024-03-02T07:53:08;8.50;99.90
22956;DHT22;40888;48.148;11.526;2024-03-02T07:55:34;9.50;99.90
22956;DHT22;40888;48.148;11.526;2024-03-02T07:58:01;11.00;99.90
22956;DHT22;40888;48.148;11.526;2024-03-02T08:00:27;12.80;99.90
22956;DHT22;40888;48.148;11.526;2024-03-02T08:02:56;14.50;99.90
22956;DHT22;40888;48.148;11.526;2024-03-02T08:05:22;15.20;99.90
22956;DHT22;40888;48.148;11.526;2024-03-02T08:07:47;15.90;98.00
22956;DHT22;40888;48.148;11.526;2024-03-02T08:10:14;17.00;81.90
22956;DHT22;40888;48.148;11.526;2024-03-02T08:12:39;18.30;73.90
22956;DHT22;40888;48.148;11.526;2024-03-02T08:15:05;19.50;66.80
22956;DHT22;40888;48.148;11.526;2024-03-02T08:17:31;20.70;58.90
22956;DHT22;40888;48.148;11.526;2024-03-02T08:19:57;21.50;54.80
22956;DHT22;40888;48.148;11.526;2024-03-02T08:22:23;22.30;50.80
22956;DHT22;40888;48.148;11.526;2024-03-02T08:24:51;22.60;49.30
22956;DHT22;40888;48.148;11.526;2024-03-02T08:27:17;22.90;48.30
22956;DHT22;40888;48.148;11.526;2024-03-02T08:29:42;23.20;46.20
22956;DHT22;40888;48.148;11.526;2024-03-02T08:32:08;23.90;45.00
22956;DHT22;40888;48.148;11.526;2024-03-02T08:34:34;24.30;43.30
22956;DHT22;40888;48.148;11.526;2024-03-02T08:37:02;24.10;42.40
22956;DHT22;40888;48.148;11.526;2024-03-02T08:39:28;24.40;42.80
22956;DHT22;40888;48.148;11.526;2024-03-02T08:41:54;25.20;41.10
22956;DHT22;40888;48.148;11.526;2024-03-02T08:44:20;25.00;40.30
22956;DHT22;40888;48.148;11.526;2024-03-02T08:46:45;24.70;40.30
22956;DHT22;40888;48.148;11.526;2024-03-02T08:49:12;24.80;39.90
22956;DHT22;40888;48.148;11.526;2024-03-02T08:51:38;24.10;41.30
22956;DHT22;40888;48.148;11.526;2024-03-02T08:54:03;24.90;40.90
22956;DHT22;40888;48.148;11.526;2024-03-02T08:56:30;25.90;40.00
22956;DHT22;40888;48.148;11.526;2024-03-02T08:58:59;26.10;37.50
22956;DHT22;40888;48.148;11.526;2024-03-02T09:01:25;26.20;38.40
22956;DHT22;40888;48.148;11.526;2024-03-02T09:03:50;26.50;36.50
22956;DHT22;40888;48.148;11.526;2024-03-02T09:06:19;25.30;38.40
22956;DHT22;40888;48.148;11.526;2024-03-02T09:08:46;25.70;37.60
22956;DHT22;40888;48.148;11.526;2024-03-02T09:11:13;25.20;38.90
22956;DHT22;40888;48.148;11.526;2024-03-02T09:13:38;26.00;38.20
22956;DHT22;40888;48.148;11.526;2024-03-02T09:16:04;25.80;38.40
22956;DHT22;40888;48.148;11.526;2024-03-02T09:18:31;26.30;37.90
22956;DHT22;40888;48.148;11.526;2024-03-02T09:20:56;26.40;36.80
22956;DHT22;40888;48.148;11.526;2024-03-02T09:23:22;26.10;38.40
22956;DHT22;40888;48.148;11.526;2024-03-02T09:25:48;25.60;38.90
22956;DHT22;40888;48.148;11.526;2024-03-02T09:28:15;26.40;38.10
22956;DHT22;40888;48.148;11.526;2024-03-02T09:30:41;26.60;38.00
22956;DHT22;40888;48.148;11.526;2024-03-02T09:33:07;25.70;38.80
22956;DHT22;40888;48.148;11.526;2024-03-02T09:35:32;25.30;38.30
22956;DHT22;40888;48.148;11.526;2024-03-02T09:37:58;25.30;38.40
22956;DHT22;40888;48.148;11.526;2024-03-02T09:40:24;26.00;38.90
22956;DHT22;40888;48.148;11.526;2024-03-02T09:42:50;25.80;37.80
22956;DHT22;40888;48.148;11.526;2024-03-02T09:45:25;25.40;38.60
22956;DHT22;40888;48.148;11.526;2024-03-02T09:47:50;25.00;38.80
22956;DHT22;40888;48.148;11.526;2024-03-02T09:50:16;24.40;39.40
22956;DHT22;40888;48.148;11.526;2024-03-02T09:52:43;24.30;39.60
22956;DHT22;40888;48.148;11.526;2024-03-02T09:55:10;23.90;40.00
22956;DHT22;40888;48.148;11.526;2024-03-02T09:57:37;23.70;40.50
22956;DHT22;40888;48.148;11.526;2024-03-02T10:00:03;23.30;40.80
22956;DHT22;40888;48.148;11.526;2024-03-02T10:02:30;22.40;42.60
22956;DHT22;40888;48.148;11.526;2024-03-02T10:04:55;21.90;45.00
22956;DHT22;40888;48.148;11.526;2024-03-02T10:07:21;21.80;46.70
22956;DHT22;40888;48.148;11.526;2024-03-02T10:09:48;21.40;47.10
22956;DHT22;40888;48.148;11.526;2024-03-02T10:12:15;20.60;48.30
22956;DHT22;40888;48.148;11.526;2024-03-02T10:14:42;19.70;51.00
22956;DHT22;40888;48.148;11.526;2024-03-02T10:17:13;19.90;50.60
22956;DHT22;40888;48.148;11.526;2024-03-02T10:19:39;19.90;50.50
22956;DHT22;40888;48.148;11.526;2024-03-02T10:22:07;19.30;52.20
22956;DHT22;40888;48.148;11.526;2024-03-02T10:27:10;19.30;53.60
22956;DHT22;40888;48.148;11.526;2024-03-02T10:29:39;19.00;52.90
22956;DHT22;40888;48.148;11.526;2024-03-02T10:32:05;18.90;54.40
22956;DHT22;40888;48.148;11.526;2024-03-02T10:34:34;18.90;53.60
22956;DHT22;40888;48.148;11.526;2024-03-02T10:37:01;18.30;54.20
22956;DHT22;40888;48.148;11.526;2024-03-02T10:39:28;18.40;56.20
22956;DHT22;40888;48.148;11.526;2024-03-02T10:41:55;18.60;56.30
22956;DHT22;40888;48.148;11.526;2024-03-02T10:44:22;18.40;56.40
22956;DHT22;40888;48.148;11.526;2024-03-02T10:46:49;18.40;56.80
22956;DHT22;40888;48.148;11.526;2024-03-02T10:49:16;18.60;56.70
22956;DHT22;40888;48.148;11.526;2024-03-02T10:51:43;19.00;56.10
22956;DHT22;40888;48.148;11.526;2024-03-02T10:54:08;18.70;55.60
22956;DHT22;40888;48.148;11.526;2024-03-02T10:56:43;18.60;56.40
22956;DHT22;40888;48.148;11.526;2024-03-02T10:59:23;18.70;55.80
22956;DHT22;40888;48.148;11.526;2024-03-02T11:01:56;18.90;54.80
22956;DHT22;40888;48.148;11.526;2024-03-02T11:04:28;19.00;55.50
22956;DHT22;40888;48.148;11.526;2024-03-02T11:07:04;19.00;55.10
22956;DHT22;40888;48.148;11.526;2024-03-02T11:09:33;19.30;54.60
22956;DHT22;40888;48.148;11.526;2024-03-02T11:12:06;19.60;55.10
22956;DHT22;40888;48.148;11.526;2024-03-02T11:14:39;19.50;53.70
22956;DHT22;40888;48.148;11.526;2024-03-02T11:17:06;19.20;54.20
22956;DHT22;40888;48.148;11.526;2024-03-02T11:19:32;19.70;54.20
22956;DHT22;40888;48.148;11.526;2024-03-02T11:21:59;19.80;52.40
22956;DHT22;40888;48.148;11.526;2024-03-02T11:27:01;19.70;53.90
22956;DHT22;40888;48.148;11.526;2024-03-02T11:32:14;20.10;53.20
22956;DHT22;40888;48.148;11.526;2024-03-02T11:34:42;20.30;52.90
22956;DHT22;40888;48.148;11.526;2024-03-02T11:37:11;20.40;52.30
22956;DHT22;40888;48.148;11.526;2024-03-02T11:39:38;20.10;52.90
22956;DHT22;40888;48.148;11.526;2024-03-02T11:42:06;20.30;52.50
22956;DHT22;40888;48.148;11.526;2024-03-02T11:44:35;20.30;52.60
22956;DHT22;40888;48.148;11.526;2024-03-02T11:47:05;20.50;53.30
22956;DHT22;40888;48.148;11.526;2024-03-02T11:49:45;20.50;53.10
22956;DHT22;40888;48.148;11.526;2024-03-02T11:52:13;20.60;52.30
22956;DHT22;40888;48.148;11.526;2024-03-02T11:54:40;20.60;52.20
22956;DHT22;40888;48.148;11.526;2024-03-02T11:57:12;20.50;53.10
22956;DHT22;40888;48.148;11.526;2024-03-02T11:59:40;20.30;53.50
22956;DHT22;40888;48.148;11.526;2024-03-02T12:02:06;20.30;51.10
22956;DHT22;40888;48.148;11.526;2024-03-02T12:04:32;20.30;52.40
22956;DHT22;40888;48.148;11.526;2024-03-02T12:07:01;20.40;52.00
22956;DHT22;40888;48.148;11.526;2024-03-02T12:09:28;20.50;52.50
22956;DHT22;40888;48.148;11.526;2024-03-02T12:14:32;20.50;52.30
22956;DHT22;40888;48.148;11.526;2024-03-02T12:16:57;19.60;52.40
22956;DHT22;40888;48.148;11.526;2024-03-02T12:19:25;19.70;54.40
22956;DHT22;40888;48.148;11.526;2024-03-02T12:21:51;19.80;54.30
22956;DHT22;40888;48.148;11.526;2024-03-02T12:24:17;20.10;54.60
22956;DHT22;40888;48.148;11.526;2024-03-02T12:26:43;20.00;54.20
22956;DHT22;40888;48.148;11.526;2024-03-02T12:29:09;20.10;54.90
22956;DHT22;40888;48.148;11.526;2024-03-02T12:31:35;20.10;53.70
22956;DHT22;40888;48.148;11.526;2024-03-02T12:34:02;20.30;54.70
22956;DHT22;40888;48.148;11.526;2024-03-02T12:36:28;19.90;54.90
22956;DHT22;40888;48.148;11.526;2024-03-02T12:38:53;19.80;56.80
22956;DHT22;40888;48.148;11.526;2024-03-02T12:41:20;19.90;56.00
22956;DHT22;40888;48.148;11.526;2024-03-02T12:43:46;20.00;55.40
22956;DHT22;40888;48.148;11.526;2024-03-02T12:46:12;20.10;54.60
22956;DHT22;40888;48.148;11.526;2024-03-02T12:48:38;20.10;55.30
22956;DHT22;40888;48.148;11.526;2024-03-02T12:51:06;19.90;56.30
22956;DHT22;40888;48.148;11.526;2024-03-02T12:53:35;20.30;55.50
22956;DHT22;40888;48.148;11.526;2024-03-02T12:56:01;20.20;55.00
22956;DHT22;40888;48.148;11.526;2024-03-02T12:58:27;20.20;55.40
22956;DHT22;40888;48.148;11.526;2024-03-02T13:01:10;20.30;55.90
22956;DHT22;40888;48.148;11.526;2024-03-02T13:03:38;20.20;56.40
22956;DHT22;40888;48.148;11.526;2024-03-02T13:06:05;19.90;57.00
22956;DHT22;40888;48.148;11.526;2024-03-02T13:08:31;20.00;57.60
22956;DHT22;40888;48.148;11.526;2024-03-02T13:10:57;19.30;57.60
22956;DHT22;40888;48.148;11.526;2024-03-02T13:13:23;18.80;59.90
22956;DHT22;40888;48.148;11.526;2024-03-02T13:15:48;19.30;59.90
22956;DHT22;40888;48.148;11.526;2024-03-02T13:18:14;19.10;59.20
22956;DHT22;40888;48.148;11.526;2024-03-02T13:20:40;19.30;59.40
22956;DHT22;40888;48.148;11.526;2024-03-02T13:23:05;19.40;59.10
22956;DHT22;40888;48.148;11.526;2024-03-02T13:25:31;19.10;59.80
22956;DHT22;40888;48.148;11.526;2024-03-02T13:27:57;19.20;59.30
22956;DHT22;40888;48.148;11.526;2024-03-02T13:30:23;19.00;60.50
22956;DHT22;40888;48.148;11.526;2024-03-02T13:32:49;18.50;64.80
22956;DHT22;40888;48.148;11.526;2024-03-02T13:35:15;18.40;74.40
22956;DHT22;40888;48.148;11.526;2024-03-02T13:37:40;18.50;67.00
22956;DHT22;40888;48.148;11.526;2024-03-02T13:40:06;18.50;68.00
22956;DHT22;40888;48.148;11.526;2024-03-02T13:42:41;18.30;70.10
22956;DHT22;40888;48.148;11.526;2024-03-02T13:45:08;18.10;72.20
22956;DHT22;40888;48.148;11.526;2024-03-02T13:47:33;18.10;74.10
22956;DHT22;40888;48.148;11.526;2024-03-02T13:49:59;17.90;75.10
22956;DHT22;40888;48.148;11.526;2024-03-02T13:52:25;17.70;77.10
22956;DHT22;40888;48.148;11.526;2024-03-02T13:54:52;17.70;80.50
22956;DHT22;40888;48.148;11.526;2024-03-02T13:57:20;17.40;85.40
22956;DHT22;40888;48.148;11.526;2024-03-02T13:59:46;17.50;87.30
22956;DHT22;40888;48.148;11.526;2024-03-02T14:02:12;17.50;88.20
22956;DHT22;40888;48.148;11.526;2024-03-02T14:04:38;17.50;85.90
22956;DHT22;40888;48.148;11.526;2024-03-02T14:07:04;17.50;85.40
22956;DHT22;40888;48.148;11.526;2024-03-02T14:09:33;17.50;86.90
22956;DHT22;40888;48.148;11.526;2024-03-02T14:11:59;17.40;89.60
22956;DHT22;40888;48.148;11.526;2024-03-02T14:14:27;17.50;83.70
22956;DHT22;40888;48.148;11.526;2024-03-02T14:16:54;17.40;87.20
22956;DHT22;40888;48.148;11.526;2024-03-02T14:19:21;17.20;93.40
22956;DHT22;40888;48.148;11.526;2024-03-02T14:21:47;17.30;86.40
22956;DHT22;40888;48.148;11.526;2024-03-02T14:24:13;17.40;88.00
22956;DHT22;40888;48.148;11.526;2024-03-02T14:26:39;17.40;81.90
22956;DHT22;40888;48.148;11.526;2024-03-02T14:29:06;17.40;83.80
22956;DHT22;40888;48.148;11.526;2024-03-02T14:31:32;17.30;82.90
22956;DHT22;40888;48.148;11.526;2024-03-02T14:33:58;17.50;76.80
22956;DHT22;40888;48.148;11.526;2024-03-02T14:36:24;17.50;78.80
22956;DHT22;40888;48.148;11.526;2024-03-02T14:38:50;17.60;74.90
22956;DHT22;40888;48.148;11.526;2024-03-02T14:41:16;17.60;74.20
22956;DHT22;40888;48.148;11.526;2024-03-02T14:43:42;17.60;74.00
22956;DHT22;40888;48.148;11.526;2024-03-02T14:46:07;17.60;73.00
22956;DHT22;40888;48.148;11.526;2024-03-02T14:48:36;17.40;70.80
22956;DHT22;40888;48.148;11.526;2024-03-02T14:51:03;17.30;78.90
22956;DHT22;40888;48.148;11.526;2024-03-02T14:53:28;17.50;72.70
22956;DHT22;40888;48.148;11.526;2024-03-02T14:55:54;17.40;74.40
22956;DHT22;40888;48.148;11.526;2024-03-02T14:58:20;17.40;74.90
22956;DHT22;40888;48.148;11.526;2024-03-02T15:00:46;17.40;76.70
22956;DHT22;40888;48.148;11.526;2024-03-02T15:03:12;17.50;70.90
22956;DHT22;40888;48.148;11.526;2024-03-02T15:05:38;17.50;75.40
22956;DHT22;40888;48.148;11.526;2024-03-02T15:08:04;17.20;74.90
22956;DHT22;40888;48.148;11.526;2024-03-02T15:10:31;17.00;84.70
22956;DHT22;40888;48.148;11.526;2024-03-02T15:12:57;17.20;75.30
22956;DHT22;40888;48.148;11.526;2024-03-02T15:15:23;17.10;80.10
22956;DHT22;40888;48.148;11.526;2024-03-02T15:17:49;17.20;76.60
22956;DHT22;40888;48.148;11.526;2024-03-02T15:20:15;17.30;78.10
22956;DHT22;40888;48.148;11.526;2024-03-02T15:22:41;17.30;76.10
22956;DHT22;40888;48.148;11.526;2024-03-02T15:25:07;17.30;76.90
22956;DHT22;40888;48.148;11.526;2024-03-02T15:27:32;17.20;76.70
22956;DHT22;40888;48.148;11.526;2024-03-02T15:29:58;17.20;76.40
22956;DHT22;40888;48.148;11.526;2024-03-02T15:32:24;17.00;83.20
22956;DHT22;40888;48.148;11.526;2024-03-02T15:34:54;16.90;82.10
22956;DHT22;40888;48.148;11.526;2024-03-02T15:37:20;16.80;90.50